createdAt,value
2019-01-16T00:00:50.290Z,6.6
2019-01-16T00:02:50.346Z,6.4
2019-01-16T00:04:49.758Z,6.3
2019-01-16T00:06:50.366Z,6.4
2019-01-16T00:08:50.420Z,6.4
2019-01-16T00:10:50.452Z,6.4
2019-01-16T00:12:50.071Z,6.5
2019-01-16T00:14:50.086Z,5.8
2019-01-16T00:16:49.989Z,6.5
2019-01-16T00:18:50.051Z,6.0
2019-01-16T00:20:50.140Z,6.0
2019-01-16T00:22:50.218Z,5.9
2019-01-16T00:24:49.877Z,5.9
2019-01-16T00:26:50.203Z,6.4
2019-01-16T00:28:50.448Z,6.4
2019-01-16T00:30:50.491Z,6.0
2019-01-16T00:32:50.483Z,6.0
2019-01-16T00:34:49.969Z,6.3
2019-01-16T00:36:50.130Z,6.1
2019-01-16T00:38:50.223Z,6.1
2019-01-16T00:40:49.783Z,5.9
2019-01-16T00:42:49.755Z,6.1
2019-01-16T00:44:49.796Z,6.1
2019-01-16T00:46:49.949Z,5.9
2019-01-16T00:48:49.975Z,5.9
2019-01-16T00:50:50.417Z,5.6
2019-01-16T00:52:49.622Z,5.5
2019-01-16T00:54:49.825Z,6.1
2019-01-16T00:56:50.113Z,6.1
2019-01-16T00:58:50.130Z,6.0
2019-01-16T01:00:50.113Z,5.9
2019-01-16T01:02:50.188Z,6.3
2019-01-16T01:04:49.577Z,6.2
2019-01-16T01:06:49.827Z,6.2
2019-01-16T01:08:49.880Z,6.0
2019-01-16T01:10:49.833Z,6.5
2019-01-16T01:12:49.828Z,6.4
2019-01-16T01:14:49.819Z,6.6
2019-01-16T01:16:50.000Z,6.6
2019-01-16T01:18:49.982Z,6.4
2019-01-16T01:20:49.992Z,6.5
2019-01-16T01:22:49.863Z,6.1
2019-01-16T01:24:49.873Z,6.0
2019-01-16T01:26:49.588Z,6.0
2019-01-16T01:28:49.737Z,6.2
2019-01-16T01:30:49.696Z,6.2
2019-01-16T01:32:50.229Z,6.6
2019-01-16T01:34:49.541Z,5.8
2019-01-16T01:36:49.826Z,5.8
2019-01-16T01:38:49.791Z,6.7
2019-01-16T01:40:49.818Z,6.4
2019-01-16T01:42:49.835Z,6.6
2019-01-16T01:44:50.499Z,6.7
2019-01-16T01:46:50.226Z,6.7
2019-01-16T01:48:50.332Z,6.4
2019-01-16T01:50:50.307Z,6.4
2019-01-16T01:52:49.557Z,6.4
2019-01-16T01:54:49.548Z,6.4
2019-01-16T01:56:49.834Z,6.4
2019-01-16T01:58:49.867Z,6.7
2019-01-16T02:00:49.842Z,6.3
2019-01-16T02:02:49.870Z,6.8
2019-01-16T02:04:50.299Z,6.8
2019-01-16T02:06:49.547Z,6.2
2019-01-16T02:08:49.635Z,7.1
2019-01-16T02:10:49.640Z,6.8
2019-01-16T02:12:49.825Z,6.6
2019-01-16T02:14:49.925Z,6.9
2019-01-16T02:16:50.204Z,6.9
2019-01-16T02:18:50.287Z,6.5
2019-01-16T02:20:49.899Z,6.6
2019-01-16T02:22:50.100Z,6.4
2019-01-16T02:24:49.821Z,6.3
2019-01-16T02:26:50.051Z,6.3
2019-01-16T02:28:50.330Z,6.2
2019-01-16T02:30:50.520Z,7.1
2019-01-16T02:32:49.653Z,6.5
2019-01-16T02:34:50.086Z,6.5
2019-01-16T02:36:50.352Z,6.2
2019-01-16T02:38:50.352Z,6.5
2019-01-16T02:40:50.407Z,6.5
2019-01-16T02:42:50.461Z,6.1
2019-01-16T02:44:50.031Z,6.1
2019-01-16T02:46:50.358Z,6.0
2019-01-16T02:48:56.480Z,6.4
2019-01-16T02:50:49.550Z,6.4
2019-01-16T02:52:49.609Z,6.4
2019-01-16T02:54:49.884Z,5.9
2019-01-16T02:56:49.954Z,5.9
2019-01-16T02:58:50.153Z,5.9
2019-01-16T03:00:50.443Z,6.2
2019-01-16T03:02:50.502Z,6.4
2019-01-16T03:04:50.334Z,6.7
2019-01-16T03:06:49.625Z,6.0
2019-01-16T03:08:49.973Z,6.3
2019-01-16T03:10:50.196Z,6.4
2019-01-16T03:12:50.104Z,6.4
2019-01-16T03:14:49.666Z,6.3
2019-01-16T03:16:49.831Z,6.4
2019-01-16T03:18:49.856Z,6.4
2019-01-16T03:20:49.892Z,6.4
2019-01-16T03:22:49.912Z,6.6
2019-01-16T03:24:49.987Z,6.6
2019-01-16T03:26:49.955Z,6.5
2019-01-16T03:28:49.728Z,6.0
2019-01-16T03:30:49.905Z,6.0
2019-01-16T03:32:49.981Z,6.2
2019-01-16T03:34:49.960Z,6.2
2019-01-16T03:36:50.167Z,5.7
2019-01-16T03:38:50.188Z,5.7
2019-01-16T03:40:50.296Z,6.4
2019-01-16T03:42:50.346Z,6.0
2019-01-16T03:44:50.064Z,5.8
2019-01-16T03:46:50.297Z,6.4
2019-01-16T03:48:50.338Z,6.3
2019-01-16T03:50:50.188Z,5.8
2019-01-16T03:52:49.991Z,5.8
2019-01-16T03:54:49.990Z,6.4
2019-01-16T03:56:50.059Z,6.2
2019-01-16T03:58:49.598Z,5.6
2019-01-16T04:00:49.559Z,5.6
2019-01-16T04:02:50.260Z,6.0
2019-01-16T04:04:50.029Z,6.1
2019-01-16T04:06:50.215Z,6.1
2019-01-16T04:08:50.274Z,6.0
2019-01-16T04:10:50.292Z,6.0
2019-01-16T04:12:50.301Z,6.1
2019-01-16T04:14:50.429Z,6.1
2019-01-16T04:16:49.692Z,6.2
2019-01-16T04:18:49.803Z,6.3
2019-01-16T04:20:49.877Z,6.3
2019-01-16T04:22:49.882Z,6.2
2019-01-16T04:24:50.530Z,6.4
2019-01-16T04:26:50.165Z,6.6
2019-01-16T04:28:50.171Z,6.6
2019-01-16T04:30:50.216Z,6.6
2019-01-16T04:32:50.321Z,6.5
2019-01-16T04:34:49.728Z,6.1
2019-01-16T04:36:49.954Z,6.1
2019-01-16T04:38:50.022Z,6.2
2019-01-16T04:40:49.979Z,6.1
2019-01-16T04:42:49.778Z,6.2
2019-01-16T04:44:50.351Z,6.5
2019-01-16T04:46:50.509Z,6.1
2019-01-16T04:48:49.525Z,6.1
2019-01-16T04:50:50.125Z,6.5
2019-01-16T04:52:50.109Z,6.3
2019-01-16T04:54:50.038Z,6.3
2019-01-16T04:56:50.188Z,6.6
2019-01-16T04:58:50.177Z,6.6
2019-01-16T05:00:49.555Z,6.2
2019-01-16T05:02:49.581Z,6.4
2019-01-16T05:04:50.468Z,6.7
2019-01-16T05:06:50.210Z,6.7
2019-01-16T05:08:49.742Z,6.6
2019-01-16T05:10:50.350Z,6.3
2019-01-16T05:12:50.434Z,6.4
2019-01-16T05:14:49.296Z,6.6
2019-01-16T05:16:50.497Z,6.4
2019-01-16T05:18:49.546Z,6.4
2019-01-16T05:20:49.655Z,7.1
2019-01-16T05:22:49.701Z,6.6
2019-01-16T05:24:49.581Z,6.3
2019-01-16T05:26:50.472Z,6.3
2019-01-16T05:28:49.567Z,6.4
2019-01-16T05:30:50.390Z,6.7
2019-01-16T05:32:49.689Z,7.6
2019-01-16T05:34:50.077Z,6.4
2019-01-16T05:36:50.355Z,6.4
2019-01-16T05:38:50.404Z,6.9
2019-01-16T05:40:50.213Z,6.7
2019-01-16T05:42:49.880Z,6.6
2019-01-16T05:44:49.923Z,6.3
2019-01-16T05:46:49.993Z,6.3
2019-01-16T05:48:50.009Z,7.5
2019-01-16T05:50:49.552Z,6.5
2019-01-16T05:52:49.522Z,6.8
2019-01-16T05:54:50.453Z,12.3
2019-01-16T05:56:49.591Z,12.3
2019-01-16T05:58:49.587Z,6.5
2019-01-16T06:00:50.035Z,6.9
2019-01-16T06:02:49.953Z,7.0
2019-01-16T06:04:50.284Z,6.7
2019-01-16T06:06:49.569Z,6.7
2019-01-16T06:08:49.512Z,6.9
2019-01-16T06:10:50.398Z,7.4
2019-01-16T06:12:50.256Z,7.9
2019-01-16T06:14:50.024Z,7.3
2019-01-16T06:16:50.118Z,7.3
2019-01-16T06:18:50.160Z,8.4
2019-01-16T06:20:49.955Z,8.0
2019-01-16T06:22:49.960Z,8.0
2019-01-16T06:24:49.963Z,8.0
2019-01-16T06:26:50.144Z,8.0
2019-01-16T06:28:50.227Z,8.4
2019-01-16T06:30:50.236Z,8.5
2019-01-16T06:32:50.259Z,8.2
2019-01-16T06:34:50.499Z,8.2
2019-01-16T06:36:49.561Z,8.3
2019-01-16T06:38:49.692Z,9.1
2019-01-16T06:40:50.391Z,8.2
2019-01-16T06:42:50.512Z,8.2
2019-01-16T06:44:49.528Z,8.4
2019-01-16T06:46:49.910Z,8.4
2019-01-16T06:48:49.917Z,7.9
2019-01-16T06:50:50.162Z,8.4
2019-01-16T06:52:49.998Z,8.3
2019-01-16T06:54:50.067Z,8.3
2019-01-16T06:56:50.200Z,8.3
2019-01-16T06:58:50.236Z,8.3
2019-01-16T07:00:50.358Z,8.1
2019-01-16T07:02:50.451Z,7.6
2019-01-16T07:04:49.867Z,7.6
2019-01-16T07:06:50.025Z,7.9
2019-01-16T07:08:49.970Z,8.6
2019-01-16T07:10:49.545Z,7.9
2019-01-16T07:12:49.778Z,7.9
2019-01-16T07:14:50.416Z,7.1
2019-01-16T07:16:49.751Z,6.9
2019-01-16T07:18:49.989Z,7.1
2019-01-16T07:20:50.026Z,7.1
2019-01-16T07:22:49.885Z,7.7
2019-01-16T07:24:49.892Z,7.0
2019-01-16T07:26:50.159Z,6.9
2019-01-16T07:28:50.168Z,7.4
2019-01-16T07:30:50.139Z,7.1
2019-01-16T07:32:50.178Z,7.1
2019-01-16T07:34:49.624Z,7.4
2019-01-16T07:36:49.871Z,7.2
2019-01-16T07:38:49.911Z,7.3
2019-01-16T07:40:49.976Z,7.3
2019-01-16T07:42:50.162Z,7.4
2019-01-16T07:44:50.485Z,7.9
2019-01-16T07:46:50.194Z,7.6
2019-01-16T07:48:49.905Z,8.3
2019-01-16T07:50:49.957Z,8.3
2019-01-16T07:52:50.142Z,8.2
2019-01-16T07:54:50.180Z,8.0
2019-01-16T07:56:50.066Z,8.0
2019-01-16T07:58:50.108Z,7.7
2019-01-16T08:00:50.148Z,7.7
2019-01-16T08:02:50.221Z,7.7
2019-01-16T08:04:50.405Z,8.1
2019-01-16T08:06:50.356Z,7.7
2019-01-16T08:08:50.394Z,7.9
2019-01-16T08:10:49.770Z,7.9
2019-01-16T08:12:50.499Z,7.9
2019-01-16T08:14:50.193Z,7.8
2019-01-16T08:16:49.986Z,8.4
2019-01-16T08:18:50.012Z,8.1
2019-01-16T08:20:50.082Z,8.1
2019-01-16T08:22:50.058Z,8.1
2019-01-16T08:24:49.883Z,8.2
2019-01-16T08:26:50.042Z,8.1
2019-01-16T08:28:50.086Z,8.3
2019-01-16T08:30:50.107Z,8.3
2019-01-16T08:32:49.599Z,7.8
2019-01-16T08:34:49.974Z,7.6
2019-01-16T08:36:49.718Z,7.3
2019-01-16T08:38:50.468Z,7.3
2019-01-16T08:40:50.112Z,7.2
2019-01-16T08:42:50.093Z,7.5
2019-01-16T08:44:49.764Z,7.4
2019-01-16T08:46:49.774Z,7.6
2019-01-16T08:48:49.738Z,7.6
2019-01-16T08:50:49.729Z,7.6
2019-01-16T08:52:49.651Z,7.2
2019-01-16T08:54:49.805Z,7.4
2019-01-16T08:56:49.993Z,7.5
2019-01-16T08:58:50.391Z,7.5
2019-01-16T09:00:50.486Z,8.1
2019-01-16T09:02:50.491Z,7.5
2019-01-16T09:04:50.032Z,7.7
2019-01-16T09:06:50.130Z,7.0
2019-01-16T09:08:50.168Z,7.0
2019-01-16T09:10:49.946Z,7.3
2019-01-16T09:12:49.777Z,7.3
2019-01-16T09:14:49.830Z,6.9
2019-01-16T09:16:49.719Z,6.9
2019-01-16T09:18:49.743Z,6.9
2019-01-16T09:20:49.742Z,7.0
2019-01-16T09:22:49.717Z,6.6
2019-01-16T09:24:50.164Z,6.5
2019-01-16T09:26:50.271Z,6.5
2019-01-16T09:28:50.268Z,6.1
2019-01-16T09:30:50.219Z,6.4
2019-01-16T09:32:50.243Z,6.4
2019-01-16T09:34:50.391Z,7.0
2019-01-16T09:36:49.644Z,6.5
2019-01-16T09:38:50.373Z,6.5
2019-01-16T09:40:50.355Z,6.9
2019-01-16T09:42:50.442Z,6.9
2019-01-16T09:44:50.146Z,7.4
2019-01-16T09:46:50.365Z,7.1
2019-01-16T09:48:50.308Z,7.0
2019-01-16T09:50:50.318Z,7.2
2019-01-16T09:52:50.260Z,7.7
2019-01-16T09:54:49.938Z,6.7
2019-01-16T09:56:49.931Z,6.7
2019-01-16T09:58:49.952Z,6.9
2019-01-16T10:00:50.009Z,6.9
2019-01-16T10:02:49.956Z,7.1
2019-01-16T10:04:50.235Z,7.1
2019-01-16T10:06:50.491Z,6.5
2019-01-16T10:08:49.590Z,7.1
2019-01-16T10:10:49.658Z,6.6
2019-01-16T10:12:49.662Z,5.8
2019-01-16T10:14:49.703Z,5.8
2019-01-16T10:16:50.487Z,6.5
2019-01-16T10:18:49.563Z,6.4
2019-01-16T10:20:56.087Z,5.6
2019-01-16T10:22:50.128Z,5.6
2019-01-16T10:24:50.076Z,5.6
2019-01-16T10:26:50.442Z,5.6
2019-01-16T10:28:50.200Z,5.5
2019-01-16T10:30:50.468Z,5.6
2019-01-16T10:32:49.656Z,5.1
2019-01-16T10:34:49.567Z,5.1
2019-01-16T10:36:50.488Z,5.2
2019-01-16T10:38:50.039Z,5.4
2019-01-16T10:40:49.692Z,4.9
2019-01-16T10:42:50.442Z,4.9
2019-01-16T10:44:49.841Z,5.1
2019-01-16T10:46:50.490Z,5.0
2019-01-16T10:48:50.169Z,4.8
2019-01-16T10:50:50.249Z,4.6
2019-01-16T10:52:50.115Z,5.0
2019-01-16T10:54:49.729Z,5.0
2019-01-16T10:56:50.373Z,5.1
2019-01-16T10:58:50.092Z,5.7
2019-01-16T11:00:49.969Z,5.2
2019-01-16T11:02:50.034Z,5.4
2019-01-16T11:04:49.708Z,5.4
2019-01-16T11:06:50.396Z,5.4
2019-01-16T11:08:49.744Z,5.3
2019-01-16T11:10:49.937Z,5.3
2019-01-16T11:12:49.616Z,5.1
2019-01-16T11:14:49.883Z,5.2
2019-01-16T11:16:56.994Z,5.3
2019-01-16T11:18:50.154Z,5.2
2019-01-16T11:20:50.231Z,5.1
2019-01-16T11:22:49.695Z,5.1
2019-01-16T11:24:50.017Z,5.4
2019-01-16T11:26:49.673Z,5.2
2019-01-16T11:28:49.791Z,4.9
2019-01-16T11:30:50.409Z,5.0
2019-01-16T11:32:49.754Z,5.0
2019-01-16T11:34:50.411Z,5.1
2019-01-16T11:36:50.470Z,5.2
2019-01-16T11:38:49.872Z,5.2
2019-01-16T11:40:51.001Z,5.2
2019-01-16T11:42:50.246Z,5.1
2019-01-16T11:44:50.476Z,5.1
2019-01-16T11:46:50.009Z,5.1
2019-01-16T11:48:49.611Z,5.3
2019-01-16T11:50:49.694Z,5.3
2019-01-16T11:52:50.115Z,5.3
2019-01-16T11:54:50.336Z,5.4
2019-01-16T11:56:49.757Z,5.5
2019-01-16T11:58:49.724Z,5.0
2019-01-16T12:00:50.116Z,5.0
2019-01-16T12:02:49.668Z,5.0
2019-01-16T12:04:49.772Z,5.7
2019-01-16T12:06:50.398Z,5.3
2019-01-16T12:08:49.762Z,6.3
2019-01-16T12:10:50.037Z,6.3
2019-01-16T12:12:50.492Z,6.2
2019-01-16T12:14:50.016Z,6.0
2019-01-16T12:16:50.322Z,6.2
2019-01-16T12:18:49.742Z,6.4
2019-01-16T12:20:49.798Z,6.4
2019-01-16T12:22:49.704Z,6.0
2019-01-16T12:24:49.891Z,5.5
2019-01-16T12:26:50.438Z,5.3
2019-01-16T12:28:50.344Z,5.8
2019-01-16T12:30:50.008Z,5.8
2019-01-16T12:32:50.421Z,6.2
2019-01-16T12:34:50.372Z,5.6
2019-01-16T12:36:49.831Z,5.7
2019-01-16T12:38:50.155Z,5.7
2019-01-16T12:40:50.053Z,5.2
2019-01-16T12:42:49.562Z,6.1
2019-01-16T12:44:49.901Z,5.9
2019-01-16T12:46:50.129Z,5.9
2019-01-16T12:48:49.578Z,5.3
2019-01-16T12:50:49.538Z,6.2
2019-01-16T12:52:54.475Z,6.1
2019-01-16T12:54:49.873Z,6.0
2019-01-16T12:56:49.804Z,5.9
2019-01-16T12:58:50.102Z,5.9
2019-01-16T13:00:49.613Z,6.5
2019-01-16T13:02:50.100Z,6.6
2019-01-16T13:04:49.550Z,6.2
2019-01-16T13:06:49.931Z,6.2
2019-01-16T13:08:50.103Z,6.2
2019-01-16T13:10:49.868Z,6.1
2019-01-16T13:12:50.166Z,6.1
2019-01-16T13:14:49.643Z,5.8
2019-01-16T13:16:49.943Z,5.8
2019-01-16T13:18:50.117Z,5.8
2019-01-16T13:20:50.381Z,6.7
2019-01-16T13:22:50.237Z,6.1
2019-01-16T13:24:50.508Z,6.0
2019-01-16T13:26:49.986Z,6.9
2019-01-16T13:28:50.132Z,6.9
2019-01-16T13:30:50.082Z,6.3
2019-01-16T13:32:50.238Z,5.8
2019-01-16T13:34:49.693Z,5.8
2019-01-16T13:36:50.347Z,6.4
2019-01-16T13:38:50.428Z,6.6
2019-01-16T13:40:49.545Z,6.0
2019-01-16T13:42:50.239Z,6.2
2019-01-16T13:44:50.164Z,6.4
2019-01-16T13:46:49.549Z,6.4
2019-01-16T13:48:53.039Z,6.4
2019-01-16T13:50:50.186Z,6.9
2019-01-16T13:52:50.158Z,6.9
2019-01-16T13:54:50.346Z,6.8
2019-01-16T13:56:49.656Z,6.8
2019-01-16T13:58:49.806Z,6.4
2019-01-16T14:00:50.454Z,6.4
2019-01-16T14:02:49.701Z,6.5
2019-01-16T14:04:50.454Z,6.2
2019-01-16T14:06:50.107Z,6.2
2019-01-16T14:08:50.048Z,6.8
2019-01-16T14:10:50.037Z,6.6
2019-01-16T14:12:50.026Z,6.4
2019-01-16T14:14:50.017Z,6.4
2019-01-16T14:16:50.176Z,6.4
2019-01-16T14:18:50.195Z,6.1
2019-01-16T14:20:50.210Z,6.5
2019-01-16T14:22:50.215Z,6.5
2019-01-16T14:24:49.898Z,6.7
2019-01-16T14:26:49.530Z,7.3
2019-01-16T14:28:49.548Z,7.3
2019-01-16T14:30:49.641Z,7.2
2019-01-16T14:32:49.638Z,7.5
2019-01-16T14:34:50.162Z,7.5
2019-01-16T14:36:50.366Z,7.7
2019-01-16T14:38:50.118Z,7.6
2019-01-16T14:40:50.143Z,7.6
2019-01-16T14:42:50.069Z,8.2
2019-01-16T14:44:50.148Z,7.9
2019-01-16T14:46:50.366Z,7.9
2019-01-16T14:48:50.366Z,8.5
2019-01-16T14:50:50.347Z,8.0
2019-01-16T14:52:50.375Z,8.0
2019-01-16T14:54:50.365Z,8.7
2019-01-16T14:56:49.524Z,8.5
2019-01-16T14:58:49.637Z,8.9
2019-01-16T15:00:49.668Z,8.3
2019-01-16T15:02:49.684Z,8.5
2019-01-16T15:04:50.240Z,8.5
2019-01-16T15:06:50.323Z,8.8
2019-01-16T15:08:50.397Z,9.4
2019-01-16T15:10:50.015Z,9.3
2019-01-16T15:12:50.022Z,9.3
2019-01-16T15:14:50.063Z,9.8
2019-01-16T15:16:50.214Z,10.8
2019-01-16T15:18:49.985Z,10.7
2019-01-16T15:20:50.064Z,10.7
2019-01-16T15:22:50.032Z,11.0
2019-01-16T15:24:50.394Z,11.0
2019-01-16T15:26:49.667Z,11.3
2019-01-16T15:28:49.633Z,10.7
2019-01-16T15:30:49.771Z,11.3
2019-01-16T15:32:49.878Z,11.3
2019-01-16T15:34:50.087Z,10.5
2019-01-16T15:36:50.236Z,11.5
2019-01-16T15:38:50.439Z,11.2
2019-01-16T15:40:50.447Z,12.0
2019-01-16T15:42:50.434Z,12.0
2019-01-16T15:44:50.402Z,12.1
2019-01-16T15:46:50.270Z,11.9
2019-01-16T15:48:50.202Z,12.0
2019-01-16T15:50:50.212Z,12.7
2019-01-16T15:52:49.973Z,12.7
2019-01-16T15:54:50.492Z,12.7
2019-01-16T15:56:50.247Z,12.1
2019-01-16T15:58:49.831Z,12.9
2019-01-16T16:00:50.145Z,13.3
2019-01-16T16:02:50.154Z,13.3
2019-01-16T16:04:49.569Z,13.4
2019-01-16T16:06:49.793Z,14.3
2019-01-16T16:08:49.783Z,13.7
2019-01-16T16:10:49.750Z,13.7
2019-01-16T16:12:49.677Z,14.3
2019-01-16T16:14:49.747Z,14.0
2019-01-16T16:16:49.884Z,14.0
2019-01-16T16:18:49.854Z,14.5
2019-01-16T16:20:49.829Z,14.5
2019-01-16T16:22:49.820Z,15.2
2019-01-16T16:24:49.791Z,14.3
2019-01-16T16:26:49.810Z,14.5
2019-01-16T16:28:49.777Z,13.9
2019-01-16T16:30:49.796Z,13.9
2019-01-16T16:32:51.791Z,14.1
2019-01-16T16:34:49.757Z,14.1
2019-01-16T16:36:49.938Z,14.3
2019-01-16T16:38:49.772Z,14.9
2019-01-16T16:40:49.708Z,14.9
2019-01-16T16:42:49.749Z,14.5
2019-01-16T16:44:49.750Z,15.1
2019-01-16T16:46:49.902Z,14.8
2019-01-16T16:48:49.877Z,14.8
2019-01-16T16:50:49.941Z,15.5
2019-01-16T16:52:50.201Z,15.5
2019-01-16T16:54:50.050Z,15.9
2019-01-16T16:56:50.174Z,15.4
2019-01-16T16:58:54.624Z,15.4
2019-01-16T17:00:49.828Z,15.5
2019-01-16T17:02:49.845Z,15.7
2019-01-16T17:04:50.471Z,15.7
2019-01-16T17:06:49.718Z,15.7
2019-01-16T17:08:50.448Z,15.6
2019-01-16T17:10:49.682Z,15.6
2019-01-16T17:12:49.627Z,15.6
2019-01-16T17:14:49.563Z,15.4
2019-01-16T17:16:50.285Z,15.3
2019-01-16T17:18:50.011Z,15.3
2019-01-16T17:20:50.087Z,15.2
2019-01-16T17:22:50.119Z,14.9
2019-01-16T17:24:50.082Z,15.5
2019-01-16T17:26:50.201Z,15.2
2019-01-16T17:28:50.288Z,15.2
2019-01-16T17:30:50.137Z,16.7
2019-01-16T17:32:50.207Z,15.2
2019-01-16T17:34:50.249Z,14.8
2019-01-16T17:36:49.565Z,14.8
2019-01-16T17:38:49.653Z,15.2
2019-01-16T17:40:49.650Z,15.4
2019-01-16T17:42:50.389Z,15.0
2019-01-16T17:44:50.338Z,14.9
2019-01-16T17:46:49.635Z,14.9
2019-01-16T17:48:49.651Z,15.5
2019-01-16T17:50:49.689Z,14.3
2019-01-16T17:52:49.813Z,14.3
2019-01-16T17:54:49.868Z,14.3
2019-01-16T17:56:50.018Z,14.3
2019-01-16T17:58:50.051Z,13.9
2019-01-16T18:00:50.084Z,13.2
2019-01-16T18:02:49.901Z,13.2
2019-01-16T18:04:50.148Z,13.8
2019-01-16T18:06:50.525Z,13.8
2019-01-16T18:08:50.265Z,13.9
2019-01-16T18:10:50.343Z,13.7
2019-01-16T18:12:50.349Z,13.7
2019-01-16T18:14:49.613Z,14.1
2019-01-16T18:16:49.944Z,13.5
2019-01-16T18:18:49.906Z,13.3
2019-01-16T18:20:49.887Z,14.2
2019-01-16T18:22:49.885Z,14.2
2019-01-16T18:24:49.872Z,14.2
2019-01-16T18:26:50.151Z,13.9
2019-01-16T18:28:50.171Z,14.9
2019-01-16T18:30:50.163Z,13.8
2019-01-16T18:32:50.165Z,13.8
2019-01-16T18:34:50.468Z,13.5
2019-01-16T18:36:49.606Z,12.7
2019-01-16T18:38:49.730Z,13.8
2019-01-16T18:40:49.549Z,13.5
2019-01-16T18:42:49.579Z,13.5
2019-01-16T18:44:49.568Z,13.9
2019-01-16T18:46:49.837Z,13.7
2019-01-16T18:48:49.916Z,13.8
2019-01-16T18:50:49.901Z,14.2
2019-01-16T18:52:52.018Z,14.2
2019-01-16T18:54:49.707Z,14.5
2019-01-16T18:56:49.981Z,13.9
2019-01-16T18:58:49.994Z,14.0
2019-01-16T19:00:49.982Z,14.4
2019-01-16T19:02:50.078Z,14.4
2019-01-16T19:04:50.282Z,13.7
2019-01-16T19:06:50.184Z,13.4
2019-01-16T19:08:50.167Z,13.8
2019-01-16T19:10:50.167Z,14.3
2019-01-16T19:12:49.984Z,14.5
2019-01-16T19:14:50.509Z,14.5
2019-01-16T19:16:49.726Z,13.3
2019-01-16T19:18:49.659Z,13.5
2019-01-16T19:20:49.682Z,13.8
2019-01-16T19:22:49.756Z,13.7
2019-01-16T19:24:49.779Z,13.7
2019-01-16T19:26:50.452Z,13.4
2019-01-16T19:28:50.172Z,13.6
2019-01-16T19:30:49.986Z,13.5
2019-01-16T19:32:49.525Z,13.5
2019-01-16T19:34:49.981Z,14.1
2019-01-16T19:36:50.360Z,14.1
2019-01-16T19:38:50.178Z,13.7
2019-01-16T19:40:50.156Z,13.5
2019-01-16T19:42:50.004Z,13.5
2019-01-16T19:44:50.003Z,14.0
2019-01-16T19:46:49.939Z,14.4
2019-01-16T19:48:49.951Z,13.9
2019-01-16T19:50:49.689Z,14.3
2019-01-16T19:52:49.855Z,14.3
2019-01-16T19:54:49.876Z,14.2
2019-01-16T19:56:50.087Z,14.0
2019-01-16T19:58:50.091Z,14.0
2019-01-16T20:00:50.108Z,14.7
2019-01-16T20:02:50.245Z,14.7
2019-01-16T20:04:49.556Z,14.3
2019-01-16T20:06:50.300Z,14.4
2019-01-16T20:08:50.295Z,16.0
2019-01-16T20:10:50.368Z,14.4
2019-01-16T20:12:49.979Z,14.4
2019-01-16T20:14:49.992Z,15.0
2019-01-16T20:16:50.172Z,15.2
2019-01-16T20:18:49.887Z,15.8
2019-01-16T20:20:49.891Z,15.8
2019-01-16T20:22:49.882Z,14.8
2019-01-16T20:24:49.837Z,15.4
2019-01-16T20:26:49.927Z,15.3
2019-01-16T20:28:49.964Z,15.0
2019-01-16T20:30:49.984Z,15.0
2019-01-16T20:32:50.023Z,15.2
2019-01-16T20:34:49.871Z,15.1
2019-01-16T20:36:49.829Z,15.4
2019-01-16T20:38:49.679Z,16.0
2019-01-16T20:40:49.700Z,16.0
2019-01-16T20:42:49.840Z,16.3
2019-01-16T20:44:49.698Z,15.7
2019-01-16T20:46:50.094Z,16.1
2019-01-16T20:48:50.426Z,16.2
2019-01-16T20:50:49.831Z,16.2
2019-01-16T20:52:49.827Z,16.1
2019-01-16T20:54:49.827Z,16.2
2019-01-16T20:56:49.593Z,16.2
2019-01-16T20:58:49.541Z,16.4
2019-01-16T21:00:49.659Z,16.1
2019-01-16T21:02:49.654Z,16.1
2019-01-16T21:04:50.119Z,16.9
2019-01-16T21:06:50.129Z,16.1
2019-01-16T21:08:50.146Z,16.1
2019-01-16T21:10:50.081Z,16.9
2019-01-16T21:12:49.693Z,16.3
2019-01-16T21:14:49.771Z,16.3
2019-01-16T21:16:50.504Z,16.3
2019-01-16T21:18:49.509Z,16.3
2019-01-16T21:20:50.352Z,16.7
2019-01-16T21:22:49.955Z,16.4
2019-01-16T21:24:49.776Z,16.4
2019-01-16T21:26:49.808Z,16.5
2019-01-16T21:28:49.692Z,16.5
2019-01-16T21:30:49.530Z,16.6
2019-01-16T21:32:50.348Z,17.1
2019-01-16T21:34:49.580Z,16.9
2019-01-16T21:36:49.680Z,16.9
2019-01-16T21:38:49.693Z,17.1
2019-01-16T21:40:50.512Z,17.0
2019-01-16T21:42:50.511Z,16.7
2019-01-16T21:44:50.356Z,16.7
2019-01-16T21:46:50.341Z,16.1
2019-01-16T21:48:50.244Z,17.6
2019-01-16T21:50:50.106Z,17.7
2019-01-16T21:52:49.978Z,16.9
2019-01-16T21:54:49.823Z,17.1
2019-01-16T21:56:50.358Z,16.1
2019-01-16T21:58:49.754Z,16.1
2019-01-16T22:00:49.637Z,16.0
2019-01-16T22:02:50.484Z,16.1
2019-01-16T22:04:49.790Z,15.2
2019-01-16T22:06:49.998Z,15.8
2019-01-16T22:08:49.864Z,15.8
2019-01-16T22:10:49.781Z,14.9
2019-01-16T22:12:49.662Z,14.9
2019-01-16T22:14:49.656Z,15.1
2019-01-16T22:16:49.730Z,15.1
2019-01-16T22:18:49.690Z,15.8
2019-01-16T22:20:49.557Z,16.2
2019-01-16T22:22:50.407Z,16.0
2019-01-16T22:24:50.306Z,16.0
2019-01-16T22:26:50.314Z,16.6
2019-01-16T22:28:50.151Z,15.8
2019-01-16T22:30:49.964Z,16.5
2019-01-16T22:32:49.898Z,18.6
2019-01-16T22:34:50.272Z,18.6
2019-01-16T22:36:50.246Z,19.2
2019-01-16T22:38:51.257Z,19.2
2019-01-16T22:40:50.058Z,17.4
2019-01-16T22:42:49.823Z,16.9
2019-01-16T22:44:49.714Z,17.1
2019-01-16T22:46:49.856Z,17.6
2019-01-16T22:48:49.656Z,17.8
2019-01-16T22:50:50.499Z,18.3
2019-01-16T22:52:50.316Z,18.0
2019-01-16T22:54:50.160Z,18.0
2019-01-16T22:56:50.210Z,18.8
2019-01-16T22:58:50.097Z,18.5
2019-01-16T23:00:49.959Z,18.5
2019-01-16T23:02:49.767Z,19.0
2019-01-16T23:04:49.927Z,19.0
2019-01-16T23:06:49.964Z,20.7
2019-01-16T23:08:49.800Z,19.7
2019-01-16T23:10:49.660Z,19.6
2019-01-16T23:12:49.660Z,20.0
2019-01-16T23:14:50.600Z,20.0
2019-01-16T23:16:49.692Z,20.2
2019-01-16T23:18:49.526Z,19.3
2019-01-16T23:20:50.424Z,19.3
2019-01-16T23:22:50.215Z,19.6
2019-01-16T23:24:50.020Z,19.6
2019-01-16T23:26:50.155Z,18.8
2019-01-16T23:28:50.076Z,19.2
2019-01-16T23:30:49.887Z,18.7
2019-01-16T23:32:49.860Z,18.7
2019-01-16T23:34:50.181Z,18.4
2019-01-16T23:36:50.177Z,17.9
2019-01-16T23:38:50.077Z,18.2
2019-01-16T23:40:50.044Z,19.1
2019-01-16T23:42:49.871Z,19.1
2019-01-16T23:44:49.696Z,17.2
2019-01-16T23:46:49.809Z,18.2
2019-01-16T23:48:49.627Z,18.2
2019-01-16T23:50:50.495Z,18.4
2019-01-16T23:52:50.374Z,18.4
2019-01-16T23:54:50.325Z,17.5
2019-01-16T23:56:50.353Z,17.7
2019-01-16T23:58:50.171Z,17.6
